.
WxDataArchive / Data Records for 2014-01-31
2014-01-30 January 2014 2014-02-01

Data Records for Friday, 31 January 2014

Time	Temp	Chill	HIndex	Humid	Dewpt	 Wind 	HiWind	WindDir	Rain 	Barom 
-----	----	-----	------	-----	-----	------	------	-------	-----	----- 
00:00	29.1	29.1	29.1	62	17.7	1	3	248	0.00	29.896 
00:05	29.3	29.3	29.3	61	17.5	1	3	248	0.00	29.896 
00:10	29.3	29.3	29.3	60	17.2	1	3	248	0.00	29.896 
00:15	29.3	29.3	29.3	59	16.8	1	4	248	0.00	29.892 
00:20	29.3	29.3	29.3	58	16.4	1	5	248	0.00	29.892 
00:25	29.4	29.4	29.4	57	16.1	0	3	248	0.00	29.892 
00:30	29.4	29.4	29.4	56	15.7	0	4	248	0.00	29.897 
00:35	29.5	29.5	29.5	54	14.9	1	4	248	0.00	29.897 
00:40	29.8	29.8	29.8	54	15.2	1	4	248	0.00	29.897 
00:45	30.1	30.1	30.1	52	14.6	1	7	248	0.00	29.899 
00:50	30.3	30.3	30.3	52	14.8	1	7	248	0.00	29.899 
00:55	30.4	30.4	30.4	52	14.9	1	3	248	0.00	29.899 
01:00	30.6	30.6	30.6	51	14.6	1	7	248	0.00	29.904 
01:05	30.9	30.9	30.9	51	14.9	1	4	248	0.00	29.904 
01:10	31.0	31.0	31.0	51	15.0	1	5	248	0.00	29.904 
01:15	31.2	31.2	31.2	50	14.8	2	6	248	0.00	29.905 
01:20	31.5	31.5	31.5	50	15.0	2	5	248	0.00	29.905 
01:25	31.5	31.5	31.5	50	15.0	1	5	248	0.00	29.905 
01:30	31.6	31.6	31.6	50	15.1	2	7	248	0.00	29.903 
01:35	31.6	31.6	31.6	50	15.1	2	5	248	0.00	29.903 
01:40	31.6	31.6	31.6	50	15.1	1	4	270	0.00	29.903 
01:45	31.8	31.8	31.8	50	15.3	2	9	248	0.00	29.903 
01:50	31.9	31.9	31.9	50	15.4	1	5	248	0.00	29.903 
01:55	31.9	31.9	31.9	50	15.4	1	3	248	0.00	29.903 
02:00	31.8	31.8	31.8	50	15.3	0	3	248	0.00	29.906 
02:05	31.8	31.8	31.8	50	15.3	1	5	248	0.00	29.906 
02:10	31.8	31.8	31.8	52	16.2	0	3	248	0.00	29.906 
02:15	31.8	31.8	31.8	51	15.8	1	6	248	0.00	29.916 
02:20	31.8	31.8	31.8	51	15.8	1	4	248	0.00	29.916 
02:25	31.8	31.8	31.8	51	15.8	1	5	248	0.00	29.916 
02:30	31.9	31.9	31.9	51	15.9	1	4	248	0.00	29.912 
02:35	31.8	31.8	31.8	52	16.2	0	3	248	0.00	29.912 
02:40	31.6	31.6	31.6	52	16.0	0	2	248	0.00	29.912 
02:45	31.6	31.6	31.6	52	16.0	1	4	248	0.00	29.919 
02:50	31.5	31.5	31.5	52	15.9	0	3	248	0.00	29.919 
02:55	31.5	31.5	31.5	52	15.9	0	3	248	0.00	29.919 
03:00	31.5	31.5	31.5	52	15.9	0	3	248	0.00	29.927 
03:05	31.5	31.5	31.5	52	15.9	1	4	248	0.00	29.927 
03:10	31.3	31.3	31.3	52	15.7	0	2	248	0.00	29.927 
03:15	31.3	31.3	31.3	53	16.2	0	2	248	0.00	29.933 
03:20	31.2	31.2	31.2	53	16.1	0	2	248	0.00	29.933 
03:25	31.2	31.2	31.2	53	16.1	0	2	248	0.00	29.933 
03:30	31.2	31.2	31.2	53	16.1	1	3	248	0.00	29.951 
03:35	31.3	31.3	31.3	54	16.6	1	4	248	0.00	29.951 
03:40	31.3	31.3	31.3	53	16.2	1	5	248	0.00	29.951 
03:45	31.3	31.3	31.3	54	16.6	0	3	248	0.00	29.951 
03:50	31.3	31.3	31.3	53	16.2	0	2	248	0.00	29.951 
03:55	31.3	31.3	31.3	54	16.6	0	2	248	0.00	29.951 
04:00	31.3	31.3	31.3	54	16.6	0	3	248	0.00	29.957 
04:05	31.3	31.3	31.3	54	16.6	0	3	248	0.00	29.957 
04:10	31.2	31.2	31.2	55	16.9	0	1	248	0.00	29.957 
04:15	31.2	31.2	31.2	55	16.9	0	3	90	0.00	29.962 
04:20	31.2	31.2	31.2	55	16.9	1	3	225	0.00	29.962 
04:25	31.2	31.2	31.2	56	17.4	0	5	248	0.00	29.962 
04:30	31.2	31.2	31.2	56	17.4	0	1	248	0.00	29.969 
04:35	31.0	31.0	31.0	56	17.2	0	4	248	0.00	29.969 
04:40	31.0	31.0	31.0	57	17.6	0	3	270	0.00	29.969 
04:45	30.9	30.9	30.9	58	17.9	0	2	270	0.00	29.966 
04:50	30.9	30.9	30.9	59	18.3	0	3	270	0.00	29.966 
04:55	30.9	30.9	30.9	60	18.7	1	3	270	0.00	29.966 
05:00	30.9	30.9	30.9	61	19.1	0	2	270	0.00	29.963 
05:05	30.9	30.9	30.9	62	19.4	0	3	270	0.00	29.963 
05:10	30.7	30.7	30.7	62	19.2	0	1	270	0.00	29.963 
05:15	30.6	30.6	30.6	63	19.5	0	1	270	0.00	29.978 
05:20	30.6	30.6	30.6	65	20.3	0	1	270	0.00	29.978 
05:25	30.4	30.4	30.4	65	20.1	0	1	270	0.00	29.978 
05:30	30.3	30.3	30.3	65	20.0	0	1	270	0.00	29.979 
05:35	30.3	30.3	30.3	66	20.3	0	2	270	0.00	29.979 
05:40	30.3	30.3	30.3	67	20.7	0	1	270	0.00	29.979 
05:45	30.3	30.3	30.3	67	20.7	0	2	270	0.00	29.985 
05:50	30.3	30.3	30.3	68	21.0	0	2	270	0.00	29.985 
05:55	30.4	30.4	30.4	69	21.5	0	2	270	0.00	29.985 
06:00	30.3	30.3	30.3	69	21.4	0	2	270	0.00	29.990 
06:05	30.3	30.3	30.3	68	21.0	0	1	270	0.00	29.990 
06:10	30.3	30.3	30.3	69	21.4	0	2	270	0.00	29.990 
06:15	30.3	30.3	30.3	69	21.4	0	2	270	0.00	30.000 
06:20	30.1	30.1	30.1	68	20.8	0	2	270	0.00	30.000 
06:25	30.1	30.1	30.1	69	21.2	0	2	270	0.00	30.000 
06:30	30.1	30.1	30.1	69	21.2	0	3	270	0.00	30.012 
06:35	30.1	30.1	30.1	69	21.2	0	2	270	0.00	30.012 
06:40	30.1	30.1	30.1	70	21.5	0	3	270	0.00	30.012 
06:45	30.0	30.0	30.0	70	21.4	0	3	270	0.00	30.013 
06:50	30.0	30.0	30.0	70	21.4	0	3	270	0.00	30.013 
06:55	30.0	30.0	30.0	71	21.8	0	2	270	0.00	30.013 
07:00	30.0	30.0	30.0	71	21.8	0	3	270	0.00	30.021 
07:05	30.0	30.0	30.0	71	21.8	0	3	270	0.00	30.021 
07:10	30.0	30.0	30.0	71	21.8	0	1	270	0.00	30.021 
07:15	29.8	29.8	29.8	70	21.2	0	3	270	0.00	30.039 
07:20	29.8	29.8	29.8	71	21.6	0	3	248	0.00	30.039 
07:25	29.8	29.8	29.8	72	21.9	0	3	248	0.00	30.039 
07:30	29.8	29.8	29.8	72	21.9	0	3	248	0.00	30.047 
07:35	29.7	29.7	29.7	73	22.1	0	3	248	0.00	30.047 
07:40	29.7	29.7	29.7	73	22.1	0	4	248	0.00	30.047 
07:45	29.7	29.7	29.7	74	22.4	0	2	248	0.00	30.054 
07:50	29.7	29.7	29.7	74	22.4	0	1	248	0.00	30.054 
07:55	29.7	29.7	29.7	75	22.8	0	1	248	0.00	30.054 
08:00	29.7	29.7	29.7	75	22.8	0	2	248	0.00	30.064 
08:05	29.5	29.5	29.5	75	22.6	0	1	248	0.00	30.064 
08:10	29.5	29.5	29.5	75	22.6	0	1	248	0.00	30.064 
08:15	29.5	29.5	29.5	75	22.6	0	2	248	0.00	30.070 
08:20	29.5	29.5	29.5	75	22.6	0	2	248	0.00	30.070 
08:25	29.5	29.5	29.5	75	22.6	0	2	248	0.00	30.070 
08:30	29.5	29.5	29.5	75	22.6	0	2	248	0.00	30.080 
08:35	29.5	29.5	29.5	75	22.6	0	1	248	0.00	30.080 
08:40	29.7	29.7	29.7	76	23.1	0	2	270	0.00	30.080 
08:45	29.7	29.7	29.7	77	23.4	0	2	270	0.00	30.092 
08:50	29.7	29.7	29.7	77	23.4	0	1	270	0.00	30.092 
08:55	29.8	29.8	29.8	77	23.5	0	1	270	0.00	30.092 
09:00	29.8	29.8	29.8	77	23.5	0	2	270	0.00	30.087 
09:05	29.8	29.8	29.8	77	23.5	0	1	270	0.00	30.087 
09:10	30.0	30.0	30.0	77	23.7	0	1	270	0.00	30.087 
09:15	30.1	30.1	30.1	77	23.8	0	1	270	0.00	30.100 
09:20	30.3	30.3	30.3	77	24.0	0	1	270	0.00	30.100 
09:25	30.6	30.6	30.6	77	24.3	0	2	270	0.00	30.100 
09:30	30.6	30.6	30.6	77	24.3	0	1	270	0.00	30.101 
09:35	30.4	30.4	30.4	77	24.1	0	1	270	0.00	30.101 
09:40	30.3	30.3	30.3	77	24.0	0	2	270	0.00	30.101 
09:45	30.0	30.0	30.0	77	23.7	1	2	270	0.00	30.096 
09:50	29.7	29.7	29.7	77	23.4	0	1	270	0.00	30.096 
09:55	29.5	29.5	29.5	78	23.5	0	1	270	0.00	30.096 
10:00	29.7	29.7	29.7	78	23.7	0	1	270	0.00	30.092 
10:05	29.8	29.8	29.8	78	23.8	0	1	270	0.00	30.092 
10:10	29.8	29.8	29.8	78	23.8	0	1	270	0.00	30.092 
10:15	30.0	30.0	30.0	78	24.0	0	1	270	0.00	30.093 
10:20	30.1	30.1	30.1	78	24.1	0	1	270	0.00	30.093 
10:25	30.3	30.3	30.3	77	24.0	0	1	270	0.00	30.093 
10:30	30.4	30.4	30.4	77	24.1	0	1	270	0.00	30.092 
10:35	30.7	30.7	30.7	77	24.4	0	2	270	0.00	30.092 
10:40	31.0	31.0	31.0	77	24.7	0	1	270	0.00	30.092 
10:45	31.2	31.2	31.2	76	24.5	1	3	270	0.00	30.089 
10:50	31.3	31.3	31.3	76	24.6	1	3	270	0.00	30.089 
10:55	31.3	31.3	31.3	75	24.3	1	4	270	0.00	30.089 
11:00	31.5	31.5	31.5	75	24.5	1	4	315	0.00	30.097 
11:05	31.6	31.6	31.6	75	24.6	1	3	315	0.00	30.097 
11:10	31.8	31.8	31.8	75	24.8	1	3	315	0.00	30.097 
11:15	31.8	31.8	31.8	75	24.8	0	2	315	0.00	30.107 
11:20	32.1	32.1	32.1	75	25.1	0	2	315	0.01	30.107 
11:25	32.2	32.2	32.2	74	24.9	0	2	315	0.00	30.107 
11:30	32.1	32.1	32.1	74	24.8	0	3	315	0.00	30.121 
11:35	31.9	31.9	31.9	74	24.6	0	1	315	0.00	30.121 
11:40	31.9	31.9	31.9	74	24.6	0	3	315	0.00	30.121 
11:45	31.9	31.9	31.9	74	24.6	0	1	315	0.00	30.120 
11:50	32.1	32.1	32.1	74	24.8	0	2	315	0.00	30.120 
11:55	32.1	32.1	32.1	74	24.8	0	1	315	0.00	30.120 
12:00	32.5	32.5	32.5	75	25.5	0	1	315	0.00	30.119 
12:05	32.8	32.8	32.8	74	25.4	0	1	315	0.00	30.119 
12:10	32.9	32.9	32.9	74	25.5	0	1	315	0.00	30.119 
12:15	32.8	32.8	32.8	74	25.4	0	1	315	0.00	30.110 
12:20	32.8	32.8	32.8	76	26.1	0	1	315	0.00	30.110 
12:25	32.9	32.9	32.9	76	26.2	0	1	315	0.00	30.110 
12:30	32.9	32.9	32.9	76	26.2	0	2	315	0.00	30.108 
12:35	32.9	32.9	32.9	77	26.5	0	1	292	0.00	30.108 
12:40	32.8	32.8	32.8	77	26.4	0	1	292	0.00	30.108 
12:45	33.1	33.1	33.1	78	27.0	0	1	292	0.00	30.105 
12:50	33.2	33.2	33.2	78	27.1	0	2	292	0.00	30.105 
12:55	33.2	33.2	33.2	79	27.4	0	2	292	0.00	30.105 
13:00	32.9	32.9	32.9	78	26.8	0	3	292	0.00	30.110 
13:05	32.5	32.5	32.5	79	26.7	0	2	292	0.00	30.110 
13:10	32.4	32.4	32.4	79	26.6	0	3	292	0.00	30.110 
13:15	32.4	32.4	32.4	80	26.9	0	2	292	0.00	30.111 
13:20	32.2	32.2	32.2	80	26.7	0	2	292	0.00	30.111 
13:25	32.2	32.2	32.2	81	27.0	0	1	292	0.00	30.111 
13:30	32.2	32.2	32.2	81	27.0	0	2	292	0.00	30.114 
13:35	32.1	32.1	32.1	82	27.2	0	2	292	0.00	30.114 
13:40	31.9	31.9	31.9	82	27.0	0	1	292	0.00	30.114 
13:45	31.8	31.8	31.8	82	26.9	0	1	292	0.00	30.114 
13:50	31.6	31.6	31.6	83	27.0	0	1	292	0.00	30.114 
13:55	31.5	31.5	31.5	83	26.9	0	2	292	0.00	30.114 
14:00	31.2	31.2	31.2	83	26.6	1	3	292	0.00	30.118 
14:05	31.0	31.0	31.0	83	26.5	1	4	292	0.00	30.118 
14:10	30.9	30.9	30.9	83	26.4	0	2	292	0.00	30.118 
14:15	30.9	30.9	30.9	83	26.4	0	2	292	0.00	30.112 
14:20	30.7	30.7	30.7	83	26.2	0	3	292	0.00	30.112 
14:25	30.7	30.7	30.7	83	26.2	0	1	292	0.00	30.112 
14:30	30.9	30.9	30.9	83	26.4	0	1	292	0.00	30.111 
14:35	31.0	31.0	31.0	83	26.5	0	1	292	0.00	30.111 
14:40	31.0	31.0	31.0	83	26.5	0	1	292	0.00	30.111 
14:45	31.0	31.0	31.0	83	26.5	0	1	292	0.00	30.110 
14:50	31.2	31.2	31.2	84	26.9	0	1	292	0.00	30.110 
14:55	31.3	31.3	31.3	84	27.0	0	1	292	0.00	30.110 
15:00	31.2	31.2	31.2	83	26.6	0	1	292	0.00	30.115 
15:05	31.0	31.0	31.0	83	26.5	0	1	292	0.00	30.115 
15:10	30.9	30.9	30.9	83	26.4	0	1	292	0.00	30.115 
15:15	30.9	30.9	30.9	84	26.6	0	1	292	0.00	30.111 
15:20	31.0	31.0	31.0	84	26.7	0	1	292	0.00	30.111 
15:25	30.9	30.9	30.9	84	26.6	0	2	292	0.00	30.111 
15:30	31.0	31.0	31.0	84	26.7	0	1	292	0.00	30.108 
15:35	31.2	31.2	31.2	84	26.9	0	1	292	0.00	30.108 
15:40	31.5	31.5	31.5	84	27.2	0	1	292	0.00	30.108 
15:45	31.6	31.6	31.6	84	27.3	0	1	292	0.00	30.118 
15:50	31.5	31.5	31.5	83	26.9	0	1	292	0.00	30.118 
15:55	31.3	31.3	31.3	83	26.7	0	1	292	0.00	30.118 
16:00	31.2	31.2	31.2	83	26.6	0	1	292	0.01	30.123 
16:05	31.2	31.2	31.2	83	26.6	0	1	292	0.00	30.123 
16:10	31.2	31.2	31.2	84	26.9	0	0	---	0.00	30.123 
16:15	31.0	31.0	31.0	84	26.7	0	1	292	0.00	30.121 
16:20	31.0	31.0	31.0	84	26.7	0	0	---	0.00	30.121 
16:25	31.0	31.0	31.0	84	26.7	0	0	---	0.00	30.121 
16:30	31.0	31.0	31.0	84	26.7	0	0	---	0.00	30.121 
16:35	31.0	31.0	31.0	84	26.7	0	0	---	0.00	30.121 
16:40	31.0	31.0	31.0	84	26.7	0	0	---	0.00	30.121 
16:45	31.0	31.0	31.0	84	26.7	0	0	---	0.01	30.120 
16:50	31.2	31.2	31.2	84	26.9	0	0	---	0.00	30.120 
16:55	31.2	31.2	31.2	84	26.9	0	0	---	0.00	30.120 
17:00	31.0	31.0	31.0	84	26.7	0	1	292	0.00	30.118 
17:05	31.0	31.0	31.0	84	26.7	0	1	292	0.00	30.118 
17:10	30.9	30.9	30.9	84	26.6	0	1	292	0.00	30.118 
17:15	30.7	30.7	30.7	84	26.4	0	1	292	0.00	30.123 
17:20	30.6	30.6	30.6	84	26.4	0	1	292	0.00	30.123 
17:25	30.4	30.4	30.4	84	26.2	0	0	---	0.00	30.123 
17:30	30.3	30.3	30.3	84	26.1	0	1	292	0.00	30.134 
17:35	30.1	30.1	30.1	84	25.9	0	0	---	0.00	30.134 
17:40	30.1	30.1	30.1	84	25.9	0	0	---	0.00	30.134 
17:45	30.0	30.0	30.0	84	25.8	0	1	292	0.00	30.123 
17:50	30.0	30.0	30.0	85	26.0	0	0	---	0.00	30.123 
17:55	29.8	29.8	29.8	85	25.9	0	0	---	0.00	30.123 
18:00	29.8	29.8	29.8	85	25.9	0	0	---	0.00	30.136 
18:05	29.7	29.7	29.7	85	25.8	0	0	---	0.00	30.136 
18:10	29.7	29.7	29.7	85	25.8	0	0	---	0.00	30.136 
18:15	29.7	29.7	29.7	85	25.8	0	1	292	0.00	30.132 
18:20	29.5	29.5	29.5	86	25.8	0	0	---	0.00	30.132 
18:25	29.5	29.5	29.5	86	25.8	0	0	---	0.00	30.132 
18:30	29.4	29.4	29.4	86	25.7	0	0	---	0.00	30.137 
18:35	29.4	29.4	29.4	86	25.7	0	1	292	0.00	30.137 
18:40	29.3	29.3	29.3	86	25.6	0	1	292	0.00	30.137 
18:45	29.3	29.3	29.3	86	25.6	0	0	---	0.00	30.139 
18:50	29.1	29.1	29.1	86	25.4	0	0	---	0.00	30.139 
18:55	29.1	29.1	29.1	86	25.4	0	0	---	0.00	30.139 
19:00	29.0	29.0	29.0	86	25.3	0	0	---	0.00	30.138 
19:05	28.8	28.8	28.8	86	25.2	0	0	---	0.00	30.138 
19:10	28.7	28.7	28.7	86	25.1	0	0	---	0.00	30.138 
19:15	28.5	28.5	28.5	86	24.9	0	0	---	0.00	30.140 
19:20	28.5	28.5	28.5	87	25.1	0	0	---	0.00	30.140 
19:25	28.5	28.5	28.5	87	25.1	0	0	---	0.00	30.140 
19:30	28.5	28.5	28.5	87	25.1	0	0	---	0.00	30.137 
19:35	28.5	28.5	28.5	87	25.1	0	0	---	0.00	30.137 
19:40	28.5	28.5	28.5	87	25.1	0	0	---	0.00	30.137 
19:45	28.7	28.7	28.7	88	25.6	0	0	---	0.00	30.139 
19:50	28.7	28.7	28.7	88	25.6	0	0	---	0.00	30.139 
19:55	28.5	28.5	28.5	88	25.4	0	1	292	0.00	30.139 
20:00	28.5	28.5	28.5	88	25.4	0	0	---	0.00	30.137 
20:05	28.5	28.5	28.5	88	25.4	0	0	---	0.00	30.137 
20:10	28.5	28.5	28.5	88	25.4	0	0	---	0.00	30.137 
20:15	28.5	28.5	28.5	88	25.4	0	0	---	0.00	30.139 
20:20	28.5	28.5	28.5	88	25.4	0	1	292	0.00	30.139 
20:25	28.5	28.5	28.5	88	25.4	0	0	---	0.00	30.139 
20:30	28.5	28.5	28.5	88	25.4	0	0	---	0.00	30.137 
20:35	28.5	28.5	28.5	88	25.4	0	0	---	0.00	30.137 
20:40	28.5	28.5	28.5	88	25.4	0	1	292	0.00	30.137 
20:45	28.5	28.5	28.5	88	25.4	0	1	292	0.00	30.129 
20:50	28.5	28.5	28.5	88	25.4	0	1	292	0.00	30.129 
20:55	28.5	28.5	28.5	89	25.7	0	1	292	0.00	30.129 
21:00	28.7	28.7	28.7	89	25.9	0	2	292	0.00	30.134 
21:05	28.5	28.5	28.5	89	25.7	0	2	292	0.00	30.134 
21:10	28.5	28.5	28.5	89	25.7	0	0	---	0.00	30.134 
21:15	28.5	28.5	28.5	89	25.7	0	1	292	0.00	30.136 
21:20	28.5	28.5	28.5	89	25.7	0	1	292	0.00	30.136 
21:25	28.5	28.5	28.5	90	25.9	0	0	---	0.00	30.136 
21:30	28.5	28.5	28.5	90	25.9	0	0	---	0.00	30.134 
21:35	28.5	28.5	28.5	90	25.9	0	1	292	0.00	30.134 
21:40	28.5	28.5	28.5	90	25.9	0	1	292	0.00	30.134 
21:45	28.4	28.4	28.4	90	25.8	0	1	292	0.00	30.131 
21:50	28.4	28.4	28.4	90	25.8	0	1	292	0.00	30.131 
21:55	28.4	28.4	28.4	90	25.8	0	0	---	0.00	30.131 
22:00	28.4	28.4	28.4	90	25.8	0	0	---	0.00	30.135 
22:05	28.4	28.4	28.4	90	25.8	0	0	---	0.00	30.135 
22:10	28.2	28.2	28.2	90	25.7	0	1	292	0.00	30.135 
22:15	28.2	28.2	28.2	90	25.7	0	0	---	0.00	30.130 
22:20	28.2	28.2	28.2	91	25.9	0	0	---	0.00	30.130 
22:25	28.2	28.2	28.2	91	25.9	0	0	---	0.00	30.130 
22:30	28.1	28.1	28.1	91	25.8	0	1	292	0.00	30.121 
22:35	28.1	28.1	28.1	91	25.8	0	0	---	0.00	30.121 
22:40	28.1	28.1	28.1	91	25.8	0	0	---	0.00	30.121 
22:45	28.1	28.1	28.1	91	25.8	0	0	---	0.00	30.120 
22:50	28.1	28.1	28.1	91	25.8	0	0	---	0.00	30.120 
22:55	28.1	28.1	28.1	91	25.8	0	0	---	0.00	30.120 
23:00	28.1	28.1	28.1	91	25.8	0	0	---	0.00	30.121 
23:05	28.1	28.1	28.1	91	25.8	0	1	292	0.00	30.121 
23:10	28.1	28.1	28.1	91	25.8	0	0	---	0.00	30.121 
23:15	28.1	28.1	28.1	91	25.8	0	0	---	0.00	30.121 
23:20	28.1	28.1	28.1	91	25.8	0	1	292	0.00	30.121 
23:25	28.1	28.1	28.1	91	25.8	0	1	292	0.00	30.121 
23:30	28.1	28.1	28.1	91	25.8	0	1	292	0.00	30.115 
23:35	28.1	28.1	28.1	91	25.8	0	1	292	0.00	30.115 
23:40	28.1	28.1	28.1	91	25.8	0	2	292	0.00	30.115 
23:45	28.1	28.1	28.1	91	25.8	0	2	292	0.00	30.113 
23:50	28.1	28.1	28.1	91	25.8	0	1	292	0.00	30.113 
23:55	28.1	28.1	28.1	92	26.1	0	2	292	0.00	30.113 

CoCoRaHS
IN-AL-39
A2 Web Hosting
Creative Commons License
GoDaddy
search engine by freefind advanced

loaded 2018-11-13 23:53:18 • last modified 2010-11-18 10:43:29
Privacy PolicyDisclaimer
• wx.awcolley.com is powered by PmWiki v.2002016 •
• all content (unless otherwise noted) © 2018 A W Colley